sensor_id;sensor_type;location;lat;lon;timestamp;P1;durP1;ratioP1;P2;durP2;ratioP2
25637;SDS011;13496;51.040;13.680;2022-10-16T00:02:52;7.22;;;5.72;;
25637;SDS011;13496;51.040;13.680;2022-10-16T00:07:54;7.18;;;6.00;;
25637;SDS011;13496;51.040;13.680;2022-10-16T00:12:56;8.15;;;5.80;;
25637;SDS011;13496;51.040;13.680;2022-10-16T00:17:58;7.53;;;6.43;;
25637;SDS011;13496;51.040;13.680;2022-10-16T00:22:59;7.50;;;5.95;;
25637;SDS011;13496;51.040;13.680;2022-10-16T00:28:02;6.45;;;5.82;;
25637;SDS011;13496;51.040;13.680;2022-10-16T00:33:03;7.25;;;5.68;;
25637;SDS011;13496;51.040;13.680;2022-10-16T00:38:05;7.05;;;5.82;;
25637;SDS011;13496;51.040;13.680;2022-10-16T00:48:37;6.63;;;5.55;;
25637;SDS011;13496;51.040;13.680;2022-10-16T00:53:39;6.28;;;5.22;;
25637;SDS011;13496;51.040;13.680;2022-10-16T00:58:41;7.88;;;5.85;;
25637;SDS011;13496;51.040;13.680;2022-10-16T01:03:43;6.85;;;5.40;;
25637;SDS011;13496;51.040;13.680;2022-10-16T01:13:56;5.82;;;4.85;;
25637;SDS011;13496;51.040;13.680;2022-10-16T01:24:33;6.63;;;5.22;;
25637;SDS011;13496;51.040;13.680;2022-10-16T01:34:53;5.28;;;4.78;;
25637;SDS011;13496;51.040;13.680;2022-10-16T01:40:00;5.05;;;4.55;;
25637;SDS011;13496;51.040;13.680;2022-10-16T01:45:06;6.38;;;4.80;;
25637;SDS011;13496;51.040;13.680;2022-10-16T01:50:12;5.50;;;4.75;;
25637;SDS011;13496;51.040;13.680;2022-10-16T01:55:22;4.95;;;4.45;;
25637;SDS011;13496;51.040;13.680;2022-10-16T02:00:27;5.55;;;4.40;;
25637;SDS011;13496;51.040;13.680;2022-10-16T02:05:32;5.63;;;4.45;;
25637;SDS011;13496;51.040;13.680;2022-10-16T02:10:47;5.45;;;4.50;;
25637;SDS011;13496;51.040;13.680;2022-10-16T02:15:49;4.85;;;4.35;;
25637;SDS011;13496;51.040;13.680;2022-10-16T02:20:53;5.13;;;4.63;;
25637;SDS011;13496;51.040;13.680;2022-10-16T02:25:58;4.93;;;4.32;;
25637;SDS011;13496;51.040;13.680;2022-10-16T02:31:04;4.85;;;4.07;;
25637;SDS011;13496;51.040;13.680;2022-10-16T02:36:12;4.25;;;3.85;;
25637;SDS011;13496;51.040;13.680;2022-10-16T02:41:14;4.40;;;4.00;;
25637;SDS011;13496;51.040;13.680;2022-10-16T02:46:16;4.85;;;4.30;;
25637;SDS011;13496;51.040;13.680;2022-10-16T02:51:19;5.25;;;4.30;;
25637;SDS011;13496;51.040;13.680;2022-10-16T02:56:20;4.10;;;3.70;;
25637;SDS011;13496;51.040;13.680;2022-10-16T03:01:23;4.13;;;3.72;;
25637;SDS011;13496;51.040;13.680;2022-10-16T03:06:25;4.82;;;4.20;;
25637;SDS011;13496;51.040;13.680;2022-10-16T03:11:26;4.22;;;3.83;;
25637;SDS011;13496;51.040;13.680;2022-10-16T03:16:30;4.28;;;3.88;;
25637;SDS011;13496;51.040;13.680;2022-10-16T03:21:31;4.57;;;4.05;;
25637;SDS011;13496;51.040;13.680;2022-10-16T03:26:33;4.20;;;3.80;;
25637;SDS011;13496;51.040;13.680;2022-10-16T03:31:35;3.97;;;3.67;;
25637;SDS011;13496;51.040;13.680;2022-10-16T03:36:36;4.20;;;3.80;;
25637;SDS011;13496;51.040;13.680;2022-10-16T03:41:38;4.03;;;3.65;;
25637;SDS011;13496;51.040;13.680;2022-10-16T03:46:40;3.60;;;3.28;;
25637;SDS011;13496;51.040;13.680;2022-10-16T03:51:42;3.80;;;3.33;;
25637;SDS011;13496;51.040;13.680;2022-10-16T03:56:43;3.90;;;3.50;;
25637;SDS011;13496;51.040;13.680;2022-10-16T04:01:45;3.47;;;3.17;;
25637;SDS011;13496;51.040;13.680;2022-10-16T04:06:47;3.80;;;3.30;;
25637;SDS011;13496;51.040;13.680;2022-10-16T04:11:49;4.85;;;3.88;;
25637;SDS011;13496;51.040;13.680;2022-10-16T04:16:50;3.42;;;3.13;;
25637;SDS011;13496;51.040;13.680;2022-10-16T04:21:52;3.50;;;3.05;;
25637;SDS011;13496;51.040;13.680;2022-10-16T04:26:54;4.32;;;3.60;;
25637;SDS011;13496;51.040;13.680;2022-10-16T04:31:55;3.45;;;3.15;;
25637;SDS011;13496;51.040;13.680;2022-10-16T04:36:57;3.40;;;3.10;;
25637;SDS011;13496;51.040;13.680;2022-10-16T04:41:59;3.45;;;3.15;;
25637;SDS011;13496;51.040;13.680;2022-10-16T04:47:00;3.25;;;2.97;;
25637;SDS011;13496;51.040;13.680;2022-10-16T04:52:02;3.03;;;2.72;;
25637;SDS011;13496;51.040;13.680;2022-10-16T04:57:04;3.20;;;2.85;;
25637;SDS011;13496;51.040;13.680;2022-10-16T05:02:06;3.38;;;3.08;;
25637;SDS011;13496;51.040;13.680;2022-10-16T05:07:08;3.38;;;3.08;;
25637;SDS011;13496;51.040;13.680;2022-10-16T05:12:09;3.25;;;2.95;;
25637;SDS011;13496;51.040;13.680;2022-10-16T05:17:12;3.20;;;2.90;;
25637;SDS011;13496;51.040;13.680;2022-10-16T05:22:14;3.97;;;3.10;;
25637;SDS011;13496;51.040;13.680;2022-10-16T05:27:15;3.25;;;2.95;;
25637;SDS011;13496;51.040;13.680;2022-10-16T05:32:20;2.90;;;2.65;;
25637;SDS011;13496;51.040;13.680;2022-10-16T05:37:22;2.97;;;2.78;;
25637;SDS011;13496;51.040;13.680;2022-10-16T05:42:23;3.05;;;2.78;;
25637;SDS011;13496;51.040;13.680;2022-10-16T05:47:25;2.92;;;2.72;;
25637;SDS011;13496;51.040;13.680;2022-10-16T05:52:27;2.95;;;2.65;;
25637;SDS011;13496;51.040;13.680;2022-10-16T05:57:29;2.75;;;2.50;;
25637;SDS011;13496;51.040;13.680;2022-10-16T06:02:31;3.10;;;2.80;;
25637;SDS011;13496;51.040;13.680;2022-10-16T06:07:35;3.00;;;2.70;;
25637;SDS011;13496;51.040;13.680;2022-10-16T06:12:37;3.53;;;3.05;;
25637;SDS011;13496;51.040;13.680;2022-10-16T06:17:39;3.92;;;2.90;;
25637;SDS011;13496;51.040;13.680;2022-10-16T06:22:40;2.97;;;2.60;;
25637;SDS011;13496;51.040;13.680;2022-10-16T06:27:42;3.25;;;2.40;;
25637;SDS011;13496;51.040;13.680;2022-10-16T06:32:44;3.13;;;2.83;;
25637;SDS011;13496;51.040;13.680;2022-10-16T06:37:46;3.83;;;2.88;;
25637;SDS011;13496;51.040;13.680;2022-10-16T06:42:47;2.75;;;2.55;;
25637;SDS011;13496;51.040;13.680;2022-10-16T06:47:49;2.50;;;2.30;;
25637;SDS011;13496;51.040;13.680;2022-10-16T06:52:51;2.97;;;2.67;;
25637;SDS011;13496;51.040;13.680;2022-10-16T06:57:53;3.17;;;2.88;;
25637;SDS011;13496;51.040;13.680;2022-10-16T07:02:54;2.58;;;2.35;;
25637;SDS011;13496;51.040;13.680;2022-10-16T07:07:56;2.55;;;2.35;;
25637;SDS011;13496;51.040;13.680;2022-10-16T07:12:58;3.00;;;2.40;;
25637;SDS011;13496;51.040;13.680;2022-10-16T07:17:59;2.90;;;2.40;;
25637;SDS011;13496;51.040;13.680;2022-10-16T07:23:01;3.92;;;2.60;;
25637;SDS011;13496;51.040;13.680;2022-10-16T07:28:03;3.28;;;2.15;;
25637;SDS011;13496;51.040;13.680;2022-10-16T07:33:05;2.92;;;2.03;;
25637;SDS011;13496;51.040;13.680;2022-10-16T07:38:06;2.95;;;2.30;;
25637;SDS011;13496;51.040;13.680;2022-10-16T07:43:08;2.58;;;2.03;;
25637;SDS011;13496;51.040;13.680;2022-10-16T07:48:10;2.72;;;2.13;;
25637;SDS011;13496;51.040;13.680;2022-10-16T07:53:12;2.53;;;2.20;;
25637;SDS011;13496;51.040;13.680;2022-10-16T07:58:14;2.92;;;2.30;;
25637;SDS011;13496;51.040;13.680;2022-10-16T08:03:16;2.25;;;2.13;;
25637;SDS011;13496;51.040;13.680;2022-10-16T08:08:18;2.92;;;2.20;;
25637;SDS011;13496;51.040;13.680;2022-10-16T08:13:20;2.33;;;2.13;;
25637;SDS011;13496;51.040;13.680;2022-10-16T08:18:22;3.78;;;2.28;;
25637;SDS011;13496;51.040;13.680;2022-10-16T08:23:24;3.17;;;2.00;;
25637;SDS011;13496;51.040;13.680;2022-10-16T08:28:27;2.22;;;2.03;;
25637;SDS011;13496;51.040;13.680;2022-10-16T08:33:29;8.32;;;2.40;;
25637;SDS011;13496;51.040;13.680;2022-10-16T08:38:30;3.58;;;2.40;;
25637;SDS011;13496;51.040;13.680;2022-10-16T08:43:35;5.35;;;2.63;;
25637;SDS011;13496;51.040;13.680;2022-10-16T08:49:05;4.25;;;2.35;;
25637;SDS011;13496;51.040;13.680;2022-10-16T08:59:16;2.50;;;2.08;;
25637;SDS011;13496;51.040;13.680;2022-10-16T09:09:45;4.13;;;2.45;;
25637;SDS011;13496;51.040;13.680;2022-10-16T09:25:29;3.92;;;2.30;;
25637;SDS011;13496;51.040;13.680;2022-10-16T09:30:33;3.75;;;2.33;;
25637;SDS011;13496;51.040;13.680;2022-10-16T09:35:36;2.53;;;1.85;;
25637;SDS011;13496;51.040;13.680;2022-10-16T09:40:38;2.20;;;2.00;;
25637;SDS011;13496;51.040;13.680;2022-10-16T09:45:52;2.25;;;2.00;;
25637;SDS011;13496;51.040;13.680;2022-10-16T09:50:58;2.45;;;2.20;;
25637;SDS011;13496;51.040;13.680;2022-10-16T09:56:02;2.38;;;2.08;;
25637;SDS011;13496;51.040;13.680;2022-10-16T10:01:11;2.35;;;1.95;;
25637;SDS011;13496;51.040;13.680;2022-10-16T10:06:16;2.15;;;1.95;;
25637;SDS011;13496;51.040;13.680;2022-10-16T10:11:35;2.40;;;2.20;;
25637;SDS011;13496;51.040;13.680;2022-10-16T10:16:38;2.35;;;2.03;;
25637;SDS011;13496;51.040;13.680;2022-10-16T10:21:39;2.75;;;2.28;;
25637;SDS011;13496;51.040;13.680;2022-10-16T10:26:44;2.10;;;1.90;;
25637;SDS011;13496;51.040;13.680;2022-10-16T10:32:35;3.25;;;1.95;;
25637;SDS011;13496;51.040;13.680;2022-10-16T10:37:30;2.28;;;1.63;;
25637;SDS011;13496;51.040;13.680;2022-10-16T10:42:57;1.98;;;1.88;;
25637;SDS011;13496;51.040;13.680;2022-10-16T11:09:48;2.20;;;1.50;;
25637;SDS011;13496;51.040;13.680;2022-10-16T11:20:20;2.35;;;1.65;;
25637;SDS011;13496;51.040;13.680;2022-10-16T11:25:29;1.55;;;1.30;;
25637;SDS011;13496;51.040;13.680;2022-10-16T11:30:46;2.58;;;1.65;;
25637;SDS011;13496;51.040;13.680;2022-10-16T11:35:59;1.58;;;1.48;;
25637;SDS011;13496;51.040;13.680;2022-10-16T11:46:30;1.70;;;1.30;;
25637;SDS011;13496;51.040;13.680;2022-10-16T11:51:38;1.80;;;1.58;;
25637;SDS011;13496;51.040;13.680;2022-10-16T11:56:43;2.45;;;1.42;;
25637;SDS011;13496;51.040;13.680;2022-10-16T12:01:49;1.48;;;1.30;;
25637;SDS011;13496;51.040;13.680;2022-10-16T12:07:01;1.50;;;1.40;;
25637;SDS011;13496;51.040;13.680;2022-10-16T12:17:39;1.75;;;1.55;;
25637;SDS011;13496;51.040;13.680;2022-10-16T12:22:42;1.48;;;1.38;;
25637;SDS011;13496;51.040;13.680;2022-10-16T12:27:56;1.40;;;1.30;;
25637;SDS011;13496;51.040;13.680;2022-10-16T12:33:15;1.58;;;1.45;;
25637;SDS011;13496;51.040;13.680;2022-10-16T12:38:28;1.20;;;1.10;;
25637;SDS011;13496;51.040;13.680;2022-10-16T12:43:38;1.85;;;1.48;;
25637;SDS011;13496;51.040;13.680;2022-10-16T12:48:43;1.65;;;1.40;;
25637;SDS011;13496;51.040;13.680;2022-10-16T12:53:57;1.20;;;1.10;;
25637;SDS011;13496;51.040;13.680;2022-10-16T13:20:47;1.30;;;1.20;;
25637;SDS011;13496;51.040;13.680;2022-10-16T13:31:22;1.02;;;0.93;;
25637;SDS011;13496;51.040;13.680;2022-10-16T13:36:27;1.55;;;1.00;;
25637;SDS011;13496;51.040;13.680;2022-10-16T13:41:31;1.30;;;1.00;;
25637;SDS011;13496;51.040;13.680;2022-10-16T13:46:32;0.95;;;0.90;;
25637;SDS011;13496;51.040;13.680;2022-10-16T13:51:35;1.40;;;1.30;;
25637;SDS011;13496;51.040;13.680;2022-10-16T13:56:38;1.30;;;1.17;;
25637;SDS011;13496;51.040;13.680;2022-10-16T14:01:41;1.17;;;1.10;;
25637;SDS011;13496;51.040;13.680;2022-10-16T14:06:45;1.23;;;1.13;;
25637;SDS011;13496;51.040;13.680;2022-10-16T14:11:51;1.08;;;0.98;;
25637;SDS011;13496;51.040;13.680;2022-10-16T14:16:56;1.33;;;1.02;;
25637;SDS011;13496;51.040;13.680;2022-10-16T14:21:58;1.60;;;1.10;;
25637;SDS011;13496;51.040;13.680;2022-10-16T14:27:20;1.13;;;1.00;;
25637;SDS011;13496;51.040;13.680;2022-10-16T14:32:34;1.33;;;1.20;;
25637;SDS011;13496;51.040;13.680;2022-10-16T14:37:36;1.58;;;1.48;;
25637;SDS011;13496;51.040;13.680;2022-10-16T14:42:38;3.55;;;1.33;;
25637;SDS011;13496;51.040;13.680;2022-10-16T14:47:49;1.02;;;1.00;;
25637;SDS011;13496;51.040;13.680;2022-10-16T14:52:56;1.20;;;1.10;;
25637;SDS011;13496;51.040;13.680;2022-10-16T14:57:59;1.52;;;1.30;;
25637;SDS011;13496;51.040;13.680;2022-10-16T15:03:01;2.15;;;1.30;;
25637;SDS011;13496;51.040;13.680;2022-10-16T15:08:03;1.88;;;1.20;;
25637;SDS011;13496;51.040;13.680;2022-10-16T15:13:06;1.80;;;1.20;;
25637;SDS011;13496;51.040;13.680;2022-10-16T15:18:07;1.02;;;1.00;;
25637;SDS011;13496;51.040;13.680;2022-10-16T15:23:16;1.30;;;1.20;;
25637;SDS011;13496;51.040;13.680;2022-10-16T15:28:21;1.25;;;1.10;;
25637;SDS011;13496;51.040;13.680;2022-10-16T15:33:24;1.15;;;1.00;;
25637;SDS011;13496;51.040;13.680;2022-10-16T15:38:34;1.25;;;1.10;;
25637;SDS011;13496;51.040;13.680;2022-10-16T15:43:37;1.50;;;0.93;;
25637;SDS011;13496;51.040;13.680;2022-10-16T15:48:39;1.10;;;1.00;;
25637;SDS011;13496;51.040;13.680;2022-10-16T15:53:41;1.40;;;1.30;;
25637;SDS011;13496;51.040;13.680;2022-10-16T15:58:43;1.20;;;1.10;;
25637;SDS011;13496;51.040;13.680;2022-10-16T16:03:45;1.30;;;1.20;;
25637;SDS011;13496;51.040;13.680;2022-10-16T16:08:46;1.45;;;1.05;;
25637;SDS011;13496;51.040;13.680;2022-10-16T16:13:48;0.93;;;0.93;;
25637;SDS011;13496;51.040;13.680;2022-10-16T16:18:52;1.35;;;1.23;;
25637;SDS011;13496;51.040;13.680;2022-10-16T16:23:54;1.73;;;1.17;;
25637;SDS011;13496;51.040;13.680;2022-10-16T16:28:56;2.97;;;1.00;;
25637;SDS011;13496;51.040;13.680;2022-10-16T16:33:58;1.63;;;0.98;;
25637;SDS011;13496;51.040;13.680;2022-10-16T16:39:00;1.20;;;1.10;;
25637;SDS011;13496;51.040;13.680;2022-10-16T16:44:06;1.40;;;1.15;;
25637;SDS011;13496;51.040;13.680;2022-10-16T16:49:13;1.75;;;1.20;;
25637;SDS011;13496;51.040;13.680;2022-10-16T16:54:16;1.27;;;1.17;;
25637;SDS011;13496;51.040;13.680;2022-10-16T16:59:18;1.35;;;1.25;;
25637;SDS011;13496;51.040;13.680;2022-10-16T17:04:23;1.60;;;1.30;;
25637;SDS011;13496;51.040;13.680;2022-10-16T17:09:24;2.22;;;1.40;;
25637;SDS011;13496;51.040;13.680;2022-10-16T17:14:26;1.50;;;1.40;;
25637;SDS011;13496;51.040;13.680;2022-10-16T17:19:28;2.30;;;1.50;;
25637;SDS011;13496;51.040;13.680;2022-10-16T17:24:29;3.33;;;1.45;;
25637;SDS011;13496;51.040;13.680;2022-10-16T17:29:31;3.03;;;1.50;;
25637;SDS011;13496;51.040;13.680;2022-10-16T17:34:33;1.55;;;1.45;;
25637;SDS011;13496;51.040;13.680;2022-10-16T17:39:35;4.20;;;1.70;;
25637;SDS011;13496;51.040;13.680;2022-10-16T17:44:37;1.77;;;1.35;;
25637;SDS011;13496;51.040;13.680;2022-10-16T17:49:39;2.60;;;1.52;;
25637;SDS011;13496;51.040;13.680;2022-10-16T17:54:41;2.63;;;1.52;;
25637;SDS011;13496;51.040;13.680;2022-10-16T17:59:44;1.88;;;1.52;;
25637;SDS011;13496;51.040;13.680;2022-10-16T18:04:46;1.70;;;1.60;;
25637;SDS011;13496;51.040;13.680;2022-10-16T18:09:47;1.90;;;1.55;;
25637;SDS011;13496;51.040;13.680;2022-10-16T18:14:49;3.25;;;1.48;;
25637;SDS011;13496;51.040;13.680;2022-10-16T18:19:53;1.67;;;1.58;;
25637;SDS011;13496;51.040;13.680;2022-10-16T18:24:55;2.15;;;1.67;;
25637;SDS011;13496;51.040;13.680;2022-10-16T18:29:59;1.90;;;1.60;;
25637;SDS011;13496;51.040;13.680;2022-10-16T18:35:00;2.03;;;1.50;;
25637;SDS011;13496;51.040;13.680;2022-10-16T18:40:03;1.85;;;1.60;;
25637;SDS011;13496;51.040;13.680;2022-10-16T18:45:05;1.73;;;1.63;;
25637;SDS011;13496;51.040;13.680;2022-10-16T18:50:07;1.92;;;1.58;;
25637;SDS011;13496;51.040;13.680;2022-10-16T18:55:09;2.65;;;1.92;;
25637;SDS011;13496;51.040;13.680;2022-10-16T19:00:11;3.25;;;2.40;;
25637;SDS011;13496;51.040;13.680;2022-10-16T19:05:13;3.92;;;2.40;;
25637;SDS011;13496;51.040;13.680;2022-10-16T19:10:15;2.78;;;2.40;;
25637;SDS011;13496;51.040;13.680;2022-10-16T19:15:17;3.75;;;2.65;;
25637;SDS011;13496;51.040;13.680;2022-10-16T19:20:18;5.00;;;3.00;;
25637;SDS011;13496;51.040;13.680;2022-10-16T19:25:20;6.32;;;3.15;;
25637;SDS011;13496;51.040;13.680;2022-10-16T19:30:23;4.10;;;2.95;;
25637;SDS011;13496;51.040;13.680;2022-10-16T19:35:25;4.47;;;3.00;;
25637;SDS011;13496;51.040;13.680;2022-10-16T19:40:27;3.17;;;2.88;;
25637;SDS011;13496;51.040;13.680;2022-10-16T19:45:29;3.22;;;2.92;;
25637;SDS011;13496;51.040;13.680;2022-10-16T19:50:31;6.00;;;2.95;;
25637;SDS011;13496;51.040;13.680;2022-10-16T19:55:33;5.28;;;3.80;;
25637;SDS011;13496;51.040;13.680;2022-10-16T20:00:34;5.97;;;3.75;;
25637;SDS011;13496;51.040;13.680;2022-10-16T20:05:36;4.72;;;3.40;;
25637;SDS011;13496;51.040;13.680;2022-10-16T20:10:46;4.32;;;3.53;;
25637;SDS011;13496;51.040;13.680;2022-10-16T20:15:48;5.30;;;3.65;;
25637;SDS011;13496;51.040;13.680;2022-10-16T20:20:50;4.38;;;3.72;;
25637;SDS011;13496;51.040;13.680;2022-10-16T20:25:52;4.82;;;3.80;;
25637;SDS011;13496;51.040;13.680;2022-10-16T20:30:55;5.68;;;3.80;;
25637;SDS011;13496;51.040;13.680;2022-10-16T20:35:56;5.72;;;4.07;;
25637;SDS011;13496;51.040;13.680;2022-10-16T20:41:01;4.60;;;3.60;;
25637;SDS011;13496;51.040;13.680;2022-10-16T20:46:05;4.15;;;3.75;;
25637;SDS011;13496;51.040;13.680;2022-10-16T20:51:10;5.63;;;3.85;;
25637;SDS011;13496;51.040;13.680;2022-10-16T20:56:33;4.18;;;3.78;;
25637;SDS011;13496;51.040;13.680;2022-10-16T21:01:36;5.15;;;3.75;;
25637;SDS011;13496;51.040;13.680;2022-10-16T21:06:38;5.05;;;3.95;;
25637;SDS011;13496;51.040;13.680;2022-10-16T21:11:40;5.75;;;4.10;;
25637;SDS011;13496;51.040;13.680;2022-10-16T21:16:41;5.82;;;4.30;;
25637;SDS011;13496;51.040;13.680;2022-10-16T21:21:43;5.22;;;4.38;;
25637;SDS011;13496;51.040;13.680;2022-10-16T21:26:45;4.30;;;3.50;;
25637;SDS011;13496;51.040;13.680;2022-10-16T21:31:47;4.30;;;3.85;;
25637;SDS011;13496;51.040;13.680;2022-10-16T21:36:49;4.68;;;4.20;;
25637;SDS011;13496;51.040;13.680;2022-10-16T21:41:50;5.38;;;3.92;;
25637;SDS011;13496;51.040;13.680;2022-10-16T21:46:52;5.65;;;3.95;;
25637;SDS011;13496;51.040;13.680;2022-10-16T21:51:54;4.30;;;3.90;;
25637;SDS011;13496;51.040;13.680;2022-10-16T21:56:56;5.60;;;4.00;;
25637;SDS011;13496;51.040;13.680;2022-10-16T22:01:57;4.40;;;4.00;;
25637;SDS011;13496;51.040;13.680;2022-10-16T22:07:00;4.65;;;3.78;;
25637;SDS011;13496;51.040;13.680;2022-10-16T22:12:02;4.93;;;4.07;;
25637;SDS011;13496;51.040;13.680;2022-10-16T22:17:04;5.65;;;3.95;;
25637;SDS011;13496;51.040;13.680;2022-10-16T22:22:06;5.47;;;3.67;;
25637;SDS011;13496;51.040;13.680;2022-10-16T22:27:07;4.28;;;3.88;;
25637;SDS011;13496;51.040;13.680;2022-10-16T22:32:09;5.60;;;3.90;;
25637;SDS011;13496;51.040;13.680;2022-10-16T22:37:11;4.35;;;3.95;;
25637;SDS011;13496;51.040;13.680;2022-10-16T22:42:13;4.35;;;3.95;;
25637;SDS011;13496;51.040;13.680;2022-10-16T22:47:14;4.57;;;4.18;;
25637;SDS011;13496;51.040;13.680;2022-10-16T22:52:17;4.45;;;3.85;;
25637;SDS011;13496;51.040;13.680;2022-10-16T22:57:19;5.40;;;4.18;;
25637;SDS011;13496;51.040;13.680;2022-10-16T23:02:20;4.45;;;3.95;;
25637;SDS011;13496;51.040;13.680;2022-10-16T23:07:22;4.75;;;4.10;;
25637;SDS011;13496;51.040;13.680;2022-10-16T23:12:24;5.55;;;4.32;;
25637;SDS011;13496;51.040;13.680;2022-10-16T23:17:26;4.57;;;4.15;;
25637;SDS011;13496;51.040;13.680;2022-10-16T23:22:28;4.10;;;3.80;;
25637;SDS011;13496;51.040;13.680;2022-10-16T23:27:29;4.88;;;4.18;;
25637;SDS011;13496;51.040;13.680;2022-10-16T23:32:31;4.30;;;3.90;;
25637;SDS011;13496;51.040;13.680;2022-10-16T23:37:33;3.72;;;3.42;;
25637;SDS011;13496;51.040;13.680;2022-10-16T23:42:35;4.25;;;3.85;;
25637;SDS011;13496;51.040;13.680;2022-10-16T23:47:37;3.90;;;3.60;;
25637;SDS011;13496;51.040;13.680;2022-10-16T23:52:38;4.78;;;3.92;;
25637;SDS011;13496;51.040;13.680;2022-10-16T23:57:40;4.38;;;3.97;;
